METAR Analyzer

一覧表示

Hello, Guest. (Login)

RJCC/CTS  -  札幌/新千歳

観測日時
2022-11-29 07:30 (UTC) (23分前)
気温
13
露点
13
湿数
0
相対湿度
100%
QNH
1002.7hPa
推定現地気圧
999.7hPa
推定海面気圧
1002.7hPa
体感温度
1.6
(無風時)
15.3
HI
13
気温前日比
+7
体感温度前日比
+2.8
HI前日比
+8.5
水平視程
4500m
鉛直視程
データなし
雲底高度
400ft AGL
V/I
SVMC (SVFR)
RVR
No RVR data
卓越風
12kt from 180°
ガスト
No gust
降水
弱いしゅう雨性の雨
その他の天気
もや
少しの(1/8) 層雲 @ 200ft AGL / 隙間のある(7/8) 層雲 @ 400ft AGL

RJCC 290730Z 18012KT 4500 -SHRA BR FEW002 BKN004 13/13 Q1002 RMK 1ST002 7ST004 A2961

RJTT/HND  -  東京/羽田

観測日時
2022-11-29 07:34 (UTC) (19分前)
気温
20
露点
17
湿数
3
相対湿度
82.9%
QNH
1011.2hPa
推定現地気圧
1010.5hPa
推定海面気圧
1011.2hPa
体感温度
10.7
(無風時)
21
HI
20.2
気温前日比
+6
体感温度前日比
+2.9
HI前日比
+7
水平視程
4000m
鉛直視程
データなし
雲底高度
3000ft AGL
V/I
SVMC (SVFR)
RVR (R16R)
>2000m ()
RVR (R22)
>2000m ()
RVR (R16L)
>2000m ()
RVR (R23)
>2000m ()
卓越風
18kt from 200°
ガスト
28kt
降水
弱いしゅう雨性の雨
その他の天気
もや
少しの(1/8) 層雲 @ 1000ft AGL / 隙間のある(7/8) 積雲 @ 3000ft AGL

RJTT 290734Z 20018G28KT 4000 R16R/P2000N R22/P2000N R16L/P2000N R23/P2000N -SHRA BR FEW010 BKN030 20/17 Q1011 RMK 1ST010 7CU030 A2986

RJAA/NRT  -  東京/成田

観測日時
2022-11-29 07:30 (UTC) (23分前)
気温
20
露点
15
湿数
5
相対湿度
72.9%
QNH
1012hPa
推定現地気圧
1010.7hPa
推定海面気圧
1012.0hPa
体感温度
11.5
(無風時)
20.6
HI
20
気温前日比
+7
体感温度前日比
+0.5
HI前日比
+7.5
水平視程
>10000m
鉛直視程
データなし
雲底高度
11000ft AGL
V/I
VMC (VFR)
RVR
No RVR data
卓越風
13kt from 180° / 一時 15kt from 190°
ガスト
一時 25kt
降水
報告なし
その他の天気
報告なし
少しの雲 @ 3000ft AGL / 隙間のある雲 @ 11000ft AGL

RJAA 290730Z 18013KT 9999 FEW030 BKN110 20/15 Q1012 TEMPO 19015G25KT

RJGG/NGO  -  名古屋/中部

観測日時
2022-11-29 07:30 (UTC) (23分前)
気温
20
露点
18
湿数
2
相対湿度
88.3%
QNH
1009hPa
推定現地気圧
1008.5hPa
推定海面気圧
1009.0hPa
体感温度
10.2
(無風時)
21.2
HI
20.4
気温前日比
+5
体感温度前日比
-6.8
HI前日比
+5.4
水平視程
4000m / 一時 3000m
鉛直視程
データなし
雲底高度
2000ft AGL / 一時 800ft AGL
V/I
SVMC (SVFR)
RVR
No RVR data
卓越風
23kt from 160°
ガスト
No gust
降水
弱いしゅう雨性の雨
降水 (一時)
中程度のしゅう雨性の雨
その他の天気
もや
その他の天気 (一時)
もや
少しの雲 @ 800ft AGL / 隙間のある雲 @ 2000ft AGL

RJGG 290730Z 16023KT 4000 -SHRA BR FEW008 BKN020 20/18 Q1009 TEMPO 3000 SHRA BR FEW005 BKN008

RJOO/ITM  -  大阪/伊丹

観測日時
2022-11-29 07:00 (UTC) (53分前)
気温
18
露点
17
湿数
1
相対湿度
93.9%
QNH
1007.5hPa
推定現地気圧
1006.1hPa
推定海面気圧
1007.5hPa
体感温度
10.8
(無風時)
19.7
HI
18.3
気温前日比
-2
体感温度前日比
-8.2
HI前日比
-0.7
水平視程
>10000m
鉛直視程
データなし
雲底高度
4000ft AGL
V/I
VMC (VFR)
RVR
No RVR data
卓越風
7kt from 70°
ガスト
No gust
降水
弱いしゅう雨性の雨
その他の天気
報告なし
少しの(1/8) 層雲 @ 800ft AGL / 散在する(3/8) 積雲 @ 2500ft AGL / 隙間のある(6/8) 積雲 @ 4000ft AGL

RJOO 290700Z 07007KT 9999 -SHRA FEW008 SCT025 BKN040 18/17 Q1007 RMK 1ST008 3CU025 6CU040 A2975

RJBB/KIX  -  大阪/関西

観測日時
2022-11-29 07:30 (UTC) (23分前)
気温
21
露点
19
湿数
2
相対湿度
88.3%
QNH
1006hPa
推定現地気圧
1005.4hPa
推定海面気圧
1006.0hPa
体感温度
12.4
(無風時)
22.1
HI
21.5
気温前日比
+4
体感温度前日比
+2.5
HI前日比
+5.3
水平視程
>10000m / 一時 4000m
鉛直視程
データなし
雲底高度
10000ft AGL / 一時 1200ft AGL
V/I
VMC (VFR)
RVR
No RVR data
卓越風
17kt from 190°
ガスト
No gust
降水
弱いしゅう雨性の雨
降水 (一時)
中程度のしゅう雨性の雨
その他の天気
報告なし
その他の天気 (一時)
もや
少しの雲 @ 1500ft AGL / 少しの積乱雲 @ 2000ft AGL / 散在する雲 @ 2500ft AGL / 隙間のある雲 @ 10000ft AGL

RJBB 290730Z 19017KT 9999 -SHRA FEW015 FEW020CB SCT025 BKN100 21/19 Q1006 TEMPO 4000 SHRA BR FEW008 BKN012 BKN025

RJFF/FUK  -  福岡

観測日時
2022-11-29 07:30 (UTC) (23分前)
気温
18
露点
17
湿数
1
相対湿度
93.9%
QNH
1009.5hPa
推定現地気圧
1008.4hPa
推定海面気圧
1009.5hPa
体感温度
11.3
(無風時)
19.7
HI
18.3
気温前日比
-5
体感温度前日比
-3.8
HI前日比
-4.2
水平視程
8000m / 一時 3000m
鉛直視程
データなし
雲底高度
1200ft AGL / 一時 800ft AGL
V/I
VMC (VFR)
RVR
No RVR data
卓越風
6kt from 350° (320° ~ 20°)
ガスト
No gust
降水
弱いしゅう雨性の雨
降水 (一時)
中程度のしゅう雨性の雨
その他の天気
報告なし
その他の天気 (一時)
もや
少しの(1/8) 層雲 @ 300ft AGL / 散在する(4/8) 層雲 @ 900ft AGL / 隙間のある(6/8) 積雲 @ 1200ft AGL

RJFF 290730Z 35006KT 320V020 8000 -SHRA FEW003 SCT009 BKN012 18/17 Q1009 TEMPO 3000 SHRA BR FEW003 SCT005 BKN008 RMK 1ST003 4ST009 6CU012 A2981

ROAH/OKA  -  那覇

観測日時
2022-11-29 07:30 (UTC) (23分前)
気温
26
露点
23
湿数
3
相対湿度
83.6%
QNH
1012.5hPa
推定現地気圧
1012.1hPa
推定海面気圧
1012.4hPa
体感温度
20.4
(無風時)
26
HI
26.8
気温前日比
±0
体感温度前日比
±0
HI前日比
+0.1
水平視程
>10000m
鉛直視程
データなし
雲底高度
No dense clouds
V/I
VMC (VFR)
RVR
No RVR data
卓越風
10kt from 210°
ガスト
No gust
降水
報告なし
その他の天気
報告なし
少しの(1/8) 積雲 @ 1300ft AGL

ROAH 290730Z 21010KT 9999 FEW013 26/23 Q1012 RMK 1CU013 A2990

31.4msec